Time;durP1;ratioP1;P1;durP2;ratioP2;P2;SDS_P1;SDS_P2;PMS_P1;PMS_P2;Temp;Humidity;BMP_temperature;BMP_pressure;BME280_temperature;BME280_humidity;BME280_pressure;Samples;Min_cycle;Max_cycle;Signal;HPM_P1;HPM_P2
2023/10/29 00:02:01;;;;;;;6.15;2.45;;;;;;;11.00;100.00;98953.88;5094023;28;20028;-82
2023/10/29 00:04:26;;;;;;;8.27;2.50;;;;;;;11.03;100.00;98944.69;5075214;28;20035;-82
2023/10/29 00:06:52;;;;;;;7.50;2.50;;;;;;;11.04;100.00;98933.03;5093829;28;20468;-83
2023/10/29 00:09:17;;;;;;;6.78;2.30;;;;;;;11.05;100.00;98945.31;5093477;28;20092;-81
2023/10/29 00:11:42;;;;;;;8.00;2.45;;;;;;;11.10;100.00;98950.91;5091899;28;20570;-81
2023/10/29 00:14:08;;;;;;;6.25;2.40;;;;;;;11.11;100.00;98949.91;5093647;28;20068;-82
2023/10/29 00:16:33;;;;;;;5.43;2.10;;;;;;;11.13;100.00;98942.53;5092889;28;20431;-84
2023/10/29 00:18:58;;;;;;;4.90;2.03;;;;;;;11.16;100.00;98928.03;5092902;28;20083;-83
2023/10/29 00:21:24;;;;;;;3.50;2.20;;;;;;;11.20;100.00;98924.81;5093547;28;20040;-85
2023/10/29 00:23:49;;;;;;;7.07;2.50;;;;;;;11.24;100.00;98938.53;5093558;28;20036;-82
2023/10/29 00:26:14;;;;;;;8.48;2.40;;;;;;;11.28;100.00;98926.50;5091793;28;20078;-82
2023/10/29 00:28:41;;;;;;;5.07;2.00;;;;;;;11.32;100.00;98924.31;5093110;28;20036;-81
2023/10/29 00:31:06;;;;;;;8.90;2.25;;;;;;;11.34;100.00;98932.91;5093388;28;20032;-82
2023/10/29 00:33:32;;;;;;;3.22;1.58;;;;;;;11.41;100.00;98923.97;5092605;28;20066;-78
2023/10/29 00:35:57;;;;;;;4.28;1.50;;;;;;;11.48;100.00;98908.06;5091907;28;20032;-81
2023/10/29 00:38:24;;;;;;;4.03;1.77;;;;;;;11.50;100.00;98907.88;5091949;28;20036;-83
2023/10/29 00:40:50;;;;;;;2.88;1.45;;;;;;;11.51;100.00;98907.69;5092512;28;20469;-80
2023/10/29 00:43:15;;;;;;;3.80;1.40;;;;;;;11.53;100.00;98905.63;5093293;28;20085;-82
2023/10/29 00:45:42;;;;;;;3.45;1.60;;;;;;;11.56;100.00;98912.41;5092741;28;20063;-83
2023/10/29 00:48:10;;;;;;;3.53;1.65;;;;;;;11.54;100.00;98907.28;5093106;28;20036;-82
2023/10/29 00:50:35;;;;;;;6.13;1.60;;;;;;;11.58;100.00;98903.19;5091235;28;20471;-87
2023/10/29 00:53:01;;;;;;;8.55;1.75;;;;;;;11.60;100.00;98901.19;5091106;28;20032;-89
2023/10/29 00:55:26;;;;;;;2.10;1.17;;;;;;;11.64;100.00;98893.63;5090784;28;20058;-89
2023/10/29 00:57:53;;;;;;;4.63;1.45;;;;;;;11.66;100.00;98894.28;5091238;28;20028;-89
2023/10/29 01:00:21;;;;;;;3.88;1.45;;;;;;;11.61;100.00;98892.19;5089362;28;20039;-85
2023/10/29 01:02:46;;;;;;;4.88;1.40;;;;;;;11.62;100.00;98888.50;5090968;28;20072;-87
2023/10/29 01:05:11;;;;;;;3.85;1.70;;;;;;;11.69;100.00;98885.03;5091341;28;20172;-90
2023/10/29 01:07:37;;;;;;;3.50;1.50;;;;;;;11.71;100.00;98891.84;5091055;28;20032;-90
2023/10/29 01:10:03;;;;;;;4.70;1.40;;;;;;;11.74;100.00;98886.13;5090567;28;20516;-90
2023/10/29 01:12:28;;;;;;;3.47;1.50;;;;;;;11.71;100.00;98880.38;5090902;28;20032;-89
2023/10/29 01:14:54;;;;;;;5.22;1.20;;;;;;;11.70;100.00;98890.19;5091353;28;20477;-88
2023/10/29 01:17:20;;;;;;;3.25;1.70;;;;;;;11.74;100.00;98877.31;5090920;28;20031;-91
2023/10/29 01:19:46;;;;;;;5.05;1.30;;;;;;;11.70;100.00;98868.06;5091475;28;20480;-89
2023/10/29 01:22:11;;;;;;;4.82;1.63;;;;;;;11.67;100.00;98865.78;5089814;28;20040;-87
2023/10/29 01:24:38;;;;;;;1.65;1.10;;;;;;;11.64;100.00;98875.81;5091143;28;20115;-88
2023/10/29 01:27:03;;;;;;;4.22;1.33;;;;;;;11.62;100.00;98848.53;5089362;28;20027;-91
2023/10/29 01:29:29;;;;;;;2.30;1.20;;;;;;;11.60;100.00;98842.59;5092990;28;20356;-85
2023/10/29 01:31:54;;;;;;;6.68;1.67;;;;;;;11.61;100.00;98830.94;5093286;28;20084;-90
2023/10/29 01:34:20;;;;;;;4.55;1.25;;;;;;;11.58;100.00;98833.13;5095192;28;20035;-88
2023/10/29 01:36:45;;;;;;;3.20;1.30;;;;;;;11.53;100.00;98841.72;5094966;28;20420;-90
2023/10/29 01:39:11;;;;;;;6.57;1.80;;;;;;;11.52;100.00;98837.41;5094201;28;20038;-90
2023/10/29 01:41:36;;;;;;;6.45;1.50;;;;;;;11.52;100.00;98828.59;5095811;28;20423;-88
2023/10/29 01:44:02;;;;;;;2.90;1.40;;;;;;;11.51;100.00;98832.25;5095157;28;20032;-89
2023/10/29 01:46:27;;;;;;;3.13;1.45;;;;;;;11.47;100.00;98814.00;5094428;28;20089;-88
2023/10/29 01:48:53;;;;;;;2.58;1.40;;;;;;;11.46;100.00;98831.03;5094437;28;20384;-87
2023/10/29 01:51:18;;;;;;;3.08;1.10;;;;;;;11.47;100.00;98831.84;5093404;28;20036;-86
2023/10/29 01:53:43;;;;;;;3.03;1.10;;;;;;;11.45;100.00;98828.56;5075580;28;20056;-89
2023/10/29 01:56:09;;;;;;;4.82;1.10;;;;;;;11.45;100.00;98847.19;5092820;28;20095;-89
2023/10/29 01:58:35;;;;;;;2.65;1.20;;;;;;;11.46;100.00;98820.38;5094427;28;20395;-85
2023/10/29 02:01:00;;;;;;;1.90;1.20;;;;;;;11.42;100.00;98832.44;5092863;28;20474;-89
2023/10/29 02:03:27;;;;;;;4.50;1.02;;;;;;;11.36;100.00;98838.53;5094473;28;20031;-85
2023/10/29 02:05:52;;;;;;;2.30;1.00;;;;;;;11.32;100.00;98853.22;5094132;28;20035;-87
2023/10/29 02:08:18;;;;;;;5.57;1.17;;;;;;;11.18;100.00;98846.97;5093824;28;20376;-84
2023/10/29 02:10:44;;;;;;;2.35;1.00;;;;;;;11.05;100.00;98818.41;5093657;28;20099;-92
2023/10/29 02:13:10;;;;;;;2.28;0.82;;;;;;;10.86;100.00;98817.19;5094277;28;20036;-90
2023/10/29 02:15:37;;;;;;;3.25;0.80;;;;;;;10.69;100.00;98800.69;5096366;28;20074;-88
2023/10/29 02:18:03;;;;;;;4.55;1.08;;;;;;;10.54;100.00;98786.63;5098675;28;20028;-90
2023/10/29 02:20:28;;;;;;;2.30;1.10;;;;;;;10.43;100.00;98790.56;5094592;28;20376;-92
2023/10/29 02:22:54;;;;;;;6.00;0.90;;;;;;;10.32;100.00;98785.75;5092710;28;20042;-90
2023/10/29 02:25:19;;;;;;;2.92;0.85;;;;;;;10.26;100.00;98794.47;5095024;28;20440;-90
2023/10/29 02:27:44;;;;;;;2.42;1.00;;;;;;;10.17;100.00;98821.13;5100544;28;20036;-91
2023/10/29 02:30:13;;;;;;;4.70;0.65;;;;;;;10.14;100.00;98826.81;5095897;28;20448;-92
2023/10/29 02:32:39;;;;;;;3.38;0.60;;;;;;;10.09;100.00;98834.53;5076551;28;20028;-88
2023/10/29 02:35:07;;;;;;;7.22;0.68;;;;;;;10.07;100.00;98824.06;5075510;28;20028;-91
2023/10/29 02:37:33;;;;;;;3.53;0.60;;;;;;;10.02;100.00;98833.63;5092916;28;20144;-90
2023/10/29 02:39:58;;;;;;;3.05;0.60;;;;;;;10.00;100.00;98825.00;5093757;28;20087;-88
2023/10/29 02:42:23;;;;;;;1.88;0.55;;;;;;;9.98;100.00;98837.66;5074723;28;20043;-90
2023/10/29 02:44:49;;;;;;;5.20;0.98;;;;;;;9.94;100.00;98837.22;5093777;28;20028;-89
2023/10/29 02:47:14;;;;;;;4.22;1.13;;;;;;;9.89;100.00;98837.72;5092891;28;20028;-90
2023/10/29 02:49:40;;;;;;;0.98;0.50;;;;;;;9.86;100.00;98834.63;5092604;28;20024;-91
2023/10/29 02:52:05;;;;;;;2.05;0.70;;;;;;;9.89;100.00;98834.25;5094029;28;20028;-87
2023/10/29 02:54:32;;;;;;;3.15;0.70;;;;;;;9.87;100.00;98830.97;5093178;28;20056;-91
2023/10/29 02:56:58;;;;;;;2.53;0.60;;;;;;;9.83;100.00;98835.81;5093432;28;20495;-90
2023/10/29 02:59:23;;;;;;;2.72;0.73;;;;;;;9.81;100.00;98842.34;5092235;28;20070;-86
2023/10/29 03:01:48;;;;;;;2.20;0.52;;;;;;;9.76;100.00;98840.19;5092118;28;20425;-90
2023/10/29 03:04:14;;;;;;;1.45;0.57;;;;;;;9.74;100.00;98836.09;5093405;28;20064;-88
2023/10/29 03:06:41;;;;;;;0.95;0.70;;;;;;;9.76;100.00;98837.53;5093315;28;20028;-86
2023/10/29 03:09:07;;;;;;;6.47;1.33;;;;;;;9.80;100.00;98852.13;5092718;28;20028;-88
2023/10/29 03:11:33;;;;;;;2.63;0.98;;;;;;;9.94;100.00;98841.66;5091563;28;20028;-81
2023/10/29 03:13:59;;;;;;;0.95;0.70;;;;;;;10.05;100.00;98852.66;5091403;28;20035;-89
2023/10/29 03:16:25;;;;;;;2.97;0.90;;;;;;;10.24;100.00;98853.94;5092628;28;20032;-85
2023/10/29 03:18:50;;;;;;;3.90;0.93;;;;;;;10.34;100.00;98843.03;5090654;28;20035;-87
2023/10/29 03:21:16;;;;;;;4.20;0.70;;;;;;;10.47;100.00;98850.34;5092278;28;20413;-86
2023/10/29 03:23:42;;;;;;;3.10;0.80;;;;;;;10.54;100.00;98843.28;5091089;28;20152;-87
2023/10/29 03:26:07;;;;;;;3.35;0.93;;;;;;;10.62;100.00;98839.69;5090963;28;20057;-89
2023/10/29 03:28:34;;;;;;;2.75;0.80;;;;;;;10.68;100.00;98843.41;5092864;28;20028;-90
2023/10/29 03:30:59;;;;;;;2.97;0.93;;;;;;;10.69;100.00;98835.25;5090805;28;20032;-87
2023/10/29 03:33:25;;;;;;;1.40;0.98;;;;;;;10.70;100.00;98839.56;5092513;28;20024;-90
2023/10/29 03:35:50;;;;;;;1.25;0.70;;;;;;;10.69;100.00;98847.72;5092504;28;20028;-88
2023/10/29 03:38:16;;;;;;;3.53;0.93;;;;;;;10.72;100.00;98850.03;5091216;28;20025;-90
2023/10/29 03:40:41;;;;;;;3.85;0.88;;;;;;;10.74;100.00;98843.47;5091260;28;20058;-89
2023/10/29 03:43:07;;;;;;;5.20;1.10;;;;;;;10.78;100.00;98849.25;5094178;28;20115;-89
2023/10/29 03:45:32;;;;;;;3.92;1.00;;;;;;;10.82;100.00;98839.06;5091094;28;20028;-89
2023/10/29 03:47:57;;;;;;;5.57;1.30;;;;;;;10.83;100.00;98844.19;5092934;28;20114;-93
2023/10/29 03:50:23;;;;;;;6.18;0.80;;;;;;;10.85;100.00;98844.84;5092738;28;20494;-90
2023/10/29 03:52:49;;;;;;;6.70;1.25;;;;;;;10.91;100.00;98840.56;5090992;28;20040;-90
2023/10/29 03:55:14;;;;;;;4.80;1.05;;;;;;;10.92;100.00;98848.34;5092655;28;20052;-91
2023/10/29 03:57:39;;;;;;;8.00;1.30;;;;;;;10.91;100.00;98878.66;5090751;28;20119;-82
2023/10/29 04:00:06;;;;;;;6.93;1.70;;;;;;;10.86;100.00;98880.25;5092095;28;20035;-84
2023/10/29 04:02:32;;;;;;;9.40;1.75;;;;;;;10.79;100.00;98911.25;5090278;28;20039;-85
2023/10/29 04:05:00;;;;;;;4.93;1.08;;;;;;;10.66;100.00;98922.56;5090637;28;20040;-83
2023/10/29 04:07:25;;;;;;;4.35;1.00;;;;;;;10.47;100.00;98930.13;5090049;28;20024;-84
2023/10/29 04:09:51;;;;;;;4.05;0.82;;;;;;;10.34;100.00;98927.28;5091914;28;20043;-82
2023/10/29 04:12:16;;;;;;;4.55;1.70;;;;;;;10.11;100.00;98908.75;5089879;28;20039;-81
2023/10/29 04:14:42;;;;;;;7.88;0.80;;;;;;;9.92;100.00;98907.47;5090827;28;20040;-87
2023/10/29 04:17:09;;;;;;;4.10;0.63;;;;;;;9.69;100.00;98938.38;5089870;28;20044;-82
2023/10/29 04:19:34;;;;;;;2.92;0.40;;;;;;;9.48;100.00;98903.69;5090208;28;20040;-82
2023/10/29 04:22:01;;;;;;;1.33;0.63;;;;;;;9.38;100.00;98911.91;5073201;28;20051;-84
2023/10/29 04:24:26;;;;;;;1.58;0.45;;;;;;;9.25;100.00;98917.81;5090079;28;20111;-83
2023/10/29 04:26:52;;;;;;;5.32;0.82;;;;;;;9.19;100.00;98894.66;5073009;28;20128;-81
2023/10/29 04:29:17;;;;;;;3.20;1.13;;;;;;;9.20;100.00;98906.09;5089798;28;20114;-80
2023/10/29 04:31:43;;;;;;;10.95;1.98;;;;;;;9.35;100.00;98912.28;5090946;28;20028;-82
2023/10/29 04:34:08;;;;;;;8.13;1.50;;;;;;;9.53;100.00;98918.09;5091010;28;20440;-84
2023/10/29 04:36:34;;;;;;;11.35;1.52;;;;;;;9.58;100.00;98906.13;5091270;28;20120;-83
2023/10/29 04:39:00;;;;;;;5.20;1.55;;;;;;;9.56;100.00;98922.22;5089567;28;20114;-86
2023/10/29 04:41:25;;;;;;;7.10;1.33;;;;;;;9.50;100.00;98929.06;5073436;28;20420;-84
2023/10/29 04:43:50;;;;;;;5.85;1.48;;;;;;;9.50;100.00;98931.72;5073309;28;20070;-92
2023/10/29 04:46:16;;;;;;;6.78;1.10;;;;;;;9.52;100.00;98932.38;5089849;28;20429;-90
2023/10/29 04:48:41;;;;;;;4.85;1.00;;;;;;;9.55;100.00;98915.25;5072958;28;20047;-87
2023/10/29 04:51:07;;;;;;;7.43;1.50;;;;;;;9.60;100.00;98935.97;5072714;28;20124;-84
2023/10/29 04:53:34;;;;;;;8.77;1.33;;;;;;;9.63;100.00;98927.63;5090462;28;20063;-84
2023/10/29 04:55:59;;;;;;;5.03;1.20;;;;;;;9.69;100.00;98921.63;5090262;28;20033;-86
2023/10/29 04:58:25;;;;;;;5.63;1.10;;;;;;;9.67;100.00;98926.28;5090105;28;20329;-87
2023/10/29 05:00:51;;;;;;;4.65;1.25;;;;;;;9.67;100.00;98924.47;5091172;28;20157;-87
2023/10/29 05:03:16;;;;;;;4.40;1.20;;;;;;;9.71;100.00;98917.75;5089535;28;20510;-88
2023/10/29 05:05:41;;;;;;;6.10;1.45;;;;;;;9.73;100.00;98919.41;5091265;28;20520;-89
2023/10/29 05:08:07;;;;;;;10.43;1.30;;;;;;;9.71;100.00;98919.59;5091654;28;20054;-87
2023/10/29 05:10:32;;;;;;;7.15;1.48;;;;;;;9.71;100.00;98924.91;5091526;28;20024;-85
2023/10/29 05:12:58;;;;;;;8.18;1.63;;;;;;;9.69;100.00;98914.47;5091805;28;20036;-86
2023/10/29 05:15:23;;;;;;;11.32;1.80;;;;;;;9.67;100.00;98916.50;5091902;28;20036;-87
2023/10/29 05:17:49;;;;;;;7.25;1.30;;;;;;;9.63;100.00;98928.47;5092910;28;20127;-86
2023/10/29 05:20:15;;;;;;;6.93;1.30;;;;;;;9.61;100.00;98919.03;5093141;28;20058;-84
2023/10/29 05:22:41;;;;;;;6.95;1.25;;;;;;;9.61;100.00;98919.03;5092461;28;20065;-89
2023/10/29 05:25:07;;;;;;;12.98;2.10;;;;;;;9.61;100.00;98930.47;5090925;28;20141;-86
2023/10/29 05:27:33;;;;;;;5.35;1.10;;;;;;;9.61;100.00;98940.28;5090627;28;20046;-88
2023/10/29 05:29:59;;;;;;;8.40;1.20;;;;;;;9.62;100.00;98958.69;5091773;28;20032;-85
2023/10/29 05:32:26;;;;;;;7.65;1.50;;;;;;;9.62;100.00;98952.56;5090680;28;20134;-86
2023/10/29 05:34:51;;;;;;;5.90;1.17;;;;;;;9.62;100.00;98971.13;5090752;28;20032;-89
2023/10/29 05:37:16;;;;;;;8.05;1.30;;;;;;;9.62;100.00;98976.44;5090926;28;20517;-86
2023/10/29 05:39:44;;;;;;;11.13;1.50;;;;;;;9.61;100.00;98983.56;5089395;28;20032;-92
2023/10/29 05:42:10;;;;;;;7.10;1.58;;;;;;;9.55;100.00;98986.94;5090722;28;20036;-89
2023/10/29 05:44:38;;;;;;;11.27;1.35;;;;;;;9.60;100.00;98983.75;5089591;28;20032;-86
2023/10/29 05:47:04;;;;;;;10.13;1.50;;;;;;;9.56;100.00;98979.81;5091648;28;20126;-86
2023/10/29 05:49:29;;;;;;;10.80;2.65;;;;;;;9.53;100.00;98986.31;5090333;28;20067;-90
2023/10/29 05:51:54;;;;;;;10.27;1.55;;;;;;;9.48;100.00;98997.47;5091774;28;20032;-81
2023/10/29 05:54:20;;;;;;;13.48;1.70;;;;;;;9.46;100.00;98996.78;5090722;28;20377;-89
2023/10/29 05:56:46;;;;;;;9.73;1.65;;;;;;;9.43;100.00;98999.81;5091624;28;20028;-87
2023/10/29 05:59:13;;;;;;;8.85;1.80;;;;;;;9.43;100.00;98993.69;5091178;28;20096;-85
2023/10/29 06:01:38;;;;;;;5.93;1.10;;;;;;;9.38;100.00;98996.03;5090665;28;20036;-88
2023/10/29 06:04:07;;;;;;;8.68;1.70;;;;;;;9.38;100.00;98991.56;5072707;28;20101;-87
2023/10/29 06:06:33;;;;;;;8.90;2.00;;;;;;;9.34;100.00;98996.41;5090192;28;20032;-89
2023/10/29 06:08:58;;;;;;;12.50;2.35;;;;;;;9.31;100.00;99003.88;5090944;28;20109;-89
2023/10/29 06:11:24;;;;;;;8.13;1.35;;;;;;;9.29;100.00;99003.22;5092489;28;20036;-90
2023/10/29 06:13:49;;;;;;;11.07;1.70;;;;;;;9.27;100.00;99010.53;5092124;28;20039;-89
2023/10/29 06:16:15;;;;;;;8.45;1.50;;;;;;;9.22;100.00;98997.78;5097283;28;20357;-88
2023/10/29 06:18:40;;;;;;;13.23;1.33;;;;;;;9.21;100.00;99000.63;5102940;28;20110;-88
2023/10/29 06:21:06;;;;;;;8.63;1.45;;;;;;;9.21;100.00;99004.13;5100394;28;20066;-90
2023/10/29 06:23:31;;;;;;;9.85;2.08;;;;;;;9.18;100.00;99010.59;5094861;28;20090;-91
2023/10/29 06:25:57;;;;;;;7.78;1.55;;;;;;;9.16;100.00;99017.06;5096667;28;20051;-88
2023/10/29 06:28:22;;;;;;;13.88;1.95;;;;;;;9.14;100.00;99027.84;5094499;28;20093;-83
2023/10/29 06:30:47;;;;;;;8.02;1.58;;;;;;;9.16;100.00;99030.31;5093248;28;20457;-90
2023/10/29 06:33:16;;;;;;;14.48;1.60;;;;;;;9.12;100.00;99048.44;5093596;28;20028;-84
2023/10/29 06:35:41;;;;;;;8.63;1.40;;;;;;;9.08;100.00;99047.13;5092992;28;20036;-88
2023/10/29 06:38:06;;;;;;;9.20;1.40;;;;;;;9.07;100.00;99064.03;5094363;28;20483;-90
2023/10/29 06:40:32;;;;;;;20.23;2.70;;;;;;;9.07;100.00;99073.81;5093826;28;20425;-90
2023/10/29 06:42:57;;;;;;;10.05;1.50;;;;;;;9.07;100.00;99082.59;5094267;28;20400;-89
2023/10/29 06:45:22;;;;;;;6.50;1.30;;;;;;;9.04;100.00;99080.28;5092890;28;20074;-90
2023/10/29 06:47:48;;;;;;;7.78;1.80;;;;;;;9.01;100.00;99093.91;5092932;28;20048;-91
2023/10/29 06:50:14;;;;;;;7.95;1.58;;;;;;;9.03;100.00;99089.25;5092543;28;20539;-90
2023/10/29 06:52:39;;;;;;;5.65;1.70;;;;;;;9.03;100.00;99107.81;5091997;28;20476;-91
2023/10/29 06:55:06;;;;;;;11.50;1.73;;;;;;;9.08;100.00;99123.25;5093561;28;20483;-91
2023/10/29 06:57:31;;;;;;;6.63;1.25;;;;;;;9.16;100.00;99117.88;5093280;28;20521;-89
2023/10/29 06:59:58;;;;;;;7.25;1.38;;;;;;;9.23;100.00;99131.31;5093460;28;20070;-90
2023/10/29 07:02:23;;;;;;;8.85;1.48;;;;;;;9.31;100.00;99133.91;5092853;28;20124;-87
2023/10/29 07:04:48;;;;;;;6.20;1.38;;;;;;;9.41;100.00;99129.22;5093306;28;20052;-89
2023/10/29 07:07:14;;;;;;;6.45;1.10;;;;;;;9.54;100.00;99134.00;5091846;28;20081;-90
2023/10/29 07:09:39;;;;;;;5.72;1.23;;;;;;;9.64;100.00;99137.25;5093043;28;20115;-90
2023/10/29 07:12:05;;;;;;;8.45;1.58;;;;;;;9.76;100.00;99142.16;5092944;28;20051;-87
2023/10/29 07:14:30;;;;;;;4.35;1.20;;;;;;;9.79;100.00;99140.00;5091304;28;20032;-87
2023/10/29 07:16:55;;;;;;;6.25;1.48;;;;;;;9.85;100.00;99146.41;5092969;28;20408;-90
2023/10/29 07:19:21;;;;;;;6.65;1.20;;;;;;;9.88;100.00;99162.84;5091661;28;20038;-85
2023/10/29 07:21:46;;;;;;;10.55;2.00;;;;;;;9.91;100.00;99160.81;5093346;28;20483;-90
2023/10/29 07:24:12;;;;;;;7.47;1.70;;;;;;;9.92;100.00;99149.22;5092774;28;20390;-88
2023/10/29 07:26:37;;;;;;;8.07;1.45;;;;;;;9.93;100.00;99177.41;5092927;28;20141;-85
2023/10/29 07:29:03;;;;;;;8.50;1.50;;;;;;;9.91;100.00;99174.09;5092505;28;20028;-81
2023/10/29 07:31:30;;;;;;;4.53;1.50;;;;;;;9.91;100.00;99176.75;5091992;28;20118;-83
2023/10/29 07:33:55;;;;;;;6.32;1.50;;;;;;;9.91;100.00;99171.44;5092062;28;20067;-83
2023/10/29 07:36:21;;;;;;;8.75;1.60;;;;;;;9.91;100.00;99179.41;5092730;28;20028;-84
2023/10/29 07:38:47;;;;;;;9.77;1.67;;;;;;;9.89;100.00;99182.25;5091984;28;20028;-82
2023/10/29 07:41:22;;;;;;;8.13;1.48;;;;;;;9.85;100.00;99186.25;5092218;28;20035;-84
2023/10/29 07:43:47;;;;;;;9.57;1.60;;;;;;;9.79;100.00;99186.97;5090699;28;20075;-81
2023/10/29 07:46:13;;;;;;;7.70;1.27;;;;;;;9.75;100.00;99177.69;5092026;28;20413;-86
2023/10/29 07:48:39;;;;;;;7.47;1.50;;;;;;;9.73;100.00;99180.50;5092392;28;20040;-83
2023/10/29 07:51:07;;;;;;;6.13;1.80;;;;;;;9.74;100.00;99174.19;5090449;28;20616;-77
2023/10/29 07:53:33;;;;;;;6.53;1.60;;;;;;;9.79;100.00;99174.53;5091886;28;20027;-83
2023/10/29 07:56:13;;;;;;;2.65;1.33;;;;;;;9.89;100.00;99183.06;5091621;28;20051;-87
2023/10/29 07:58:39;;;;;;;6.55;1.35;;;;;;;9.91;100.00;99196.19;5091620;28;20055;-88
2023/10/29 08:01:12;;;;;;;13.20;2.05;;;;;;;9.98;100.00;99212.25;5091507;28;20050;-85
2023/10/29 08:03:39;;;;;;;12.02;1.27;;;;;;;10.02;100.00;99225.03;5091675;28;20028;-86
2023/10/29 08:06:04;;;;;;;8.43;1.90;;;;;;;10.06;100.00;99231.66;5090214;28;20414;-82
2023/10/29 08:08:30;;;;;;;7.60;1.27;;;;;;;10.09;100.00;99234.94;5091208;28;20067;-85
2023/10/29 08:10:55;;;;;;;8.02;1.50;;;;;;;10.11;100.00;99222.34;5091387;28;20072;-85
2023/10/29 08:13:21;;;;;;;9.73;2.15;;;;;;;10.12;100.00;99238.09;5089894;28;20028;-88
2023/10/29 08:15:46;;;;;;;4.65;0.95;;;;;;;10.17;100.00;99248.22;5089753;28;20036;-86
2023/10/29 08:18:19;;;;;;;4.63;1.10;;;;;;;10.20;100.00;99235.38;5091317;28;20038;-86
2023/10/29 08:20:44;;;;;;;4.28;1.10;;;;;;;10.26;100.00;99230.38;5091776;28;20119;-88
2023/10/29 08:23:10;;;;;;;5.25;1.17;;;;;;;10.35;100.00;99237.31;5091980;28;20056;-90
2023/10/29 08:25:36;;;;;;;10.85;1.80;;;;;;;10.43;100.00;99249.72;5091549;28;20024;-89
2023/10/29 08:28:01;;;;;;;5.15;1.10;;;;;;;10.52;100.00;99241.50;5091630;28;20092;-89
2023/10/29 08:30:27;;;;;;;5.97;1.10;;;;;;;10.57;100.00;99249.78;5091402;28;20144;-88
2023/10/29 08:32:52;;;;;;;4.03;1.10;;;;;;;10.59;100.00;99244.28;5091823;28;20161;-85
2023/10/29 08:35:18;;;;;;;4.28;1.05;;;;;;;10.72;100.00;99238.38;5090197;28;20509;-86
2023/10/29 08:37:43;;;;;;;3.88;1.20;;;;;;;10.73;100.00;99235.53;5090885;28;20039;-87
2023/10/29 08:40:09;;;;;;;5.57;1.58;;;;;;;10.71;100.00;99253.50;5073123;28;20142;-87
2023/10/29 08:42:36;;;;;;;7.63;1.67;;;;;;;10.71;100.00;99256.16;5090832;28;20107;-83
2023/10/29 08:45:01;;;;;;;8.43;1.20;;;;;;;10.74;100.00;99258.44;5091192;28;20329;-88
2023/10/29 08:47:27;;;;;;;9.10;1.52;;;;;;;10.70;100.00;99266.97;5089898;28;20032;-87
2023/10/29 08:49:52;;;;;;;4.30;1.42;;;;;;;10.70;100.00;99269.63;5091593;28;20028;-89
2023/10/29 08:52:18;;;;;;;3.40;1.25;;;;;;;10.69;100.00;99281.28;5091521;28;20036;-88
2023/10/29 08:54:47;;;;;;;4.93;1.45;;;;;;;10.69;100.00;99295.41;5090136;28;20454;-87
2023/10/29 08:57:12;;;;;;;3.60;1.20;;;;;;;10.72;100.00;99310.19;5091220;28;20067;-82
2023/10/29 08:59:38;;;;;;;8.15;1.63;;;;;;;10.75;100.00;99315.97;5091306;28;20111;-83
2023/10/29 09:02:03;;;;;;;9.55;1.58;;;;;;;10.77;100.00;99307.81;5090728;28;20114;-83
2023/10/29 09:04:29;;;;;;;10.13;1.65;;;;;;;10.77;100.00;99318.47;5090865;28;20024;-77
2023/10/29 09:06:54;;;;;;;4.97;1.15;;;;;;;10.77;100.00;99305.97;5090459;28;20032;-84
2023/10/29 09:09:20;;;;;;;10.25;1.45;;;;;;;10.85;100.00;99309.59;5091406;28;20087;-88
2023/10/29 09:11:46;;;;;;;6.00;1.60;;;;;;;10.85;100.00;99334.38;5091283;28;20078;-86
2023/10/29 09:14:13;;;;;;;9.07;1.52;;;;;;;10.82;100.00;99328.56;5091497;28;20040;-79
2023/10/29 09:16:39;;;;;;;18.73;1.75;;;;;;;10.97;100.00;99331.28;5089908;28;20051;-87
2023/10/29 09:19:04;;;;;;;9.55;1.40;;;;;;;10.99;100.00;99323.94;5090798;28;20032;-84
2023/10/29 09:21:30;;;;;;;6.45;1.73;;;;;;;11.03;100.00;99312.78;5090722;28;20032;-89
2023/10/29 09:23:55;;;;;;;4.22;1.05;;;;;;;11.08;100.00;99306.91;5091033;28;20032;-80
2023/10/29 09:26:20;;;;;;;5.72;1.38;;;;;;;11.21;100.00;99303.63;5074494;28;20036;-82
2023/10/29 09:28:46;;;;;;;5.43;1.20;;;;;;;11.28;100.00;99301.91;5090500;28;20435;-86
2023/10/29 09:31:18;;;;;;;9.88;1.92;;;;;;;11.40;100.00;99310.28;5094556;28;20056;-82
2023/10/29 09:33:44;;;;;;;8.57;1.70;;;;;;;11.31;100.00;99314.84;5090948;28;20040;-81
2023/10/29 09:36:10;;;;;;;7.78;1.67;;;;;;;11.32;100.00;99321.03;5091752;28;20518;-89
2023/10/29 09:38:35;;;;;;;6.93;1.20;;;;;;;11.21;100.00;99333.75;5090362;28;20028;-91
2023/10/29 09:41:01;;;;;;;7.47;1.40;;;;;;;11.21;100.00;99328.44;5090072;28;20067;-83
2023/10/29 09:43:31;;;;;;;7.15;1.92;;;;;;;11.15;100.00;99331.81;5091137;28;20062;-83
2023/10/29 09:46:02;;;;;;;13.83;1.60;;;;;;;11.16;100.00;99335.31;5091259;28;20044;-81
2023/10/29 09:48:28;;;;;;;;;;;;;;;11.18;100.00;99326.13;5091553;28;20055;-89
2023/10/29 09:50:53;;;;;;;8.23;1.40;;;;;;;11.26;100.00;99326.03;5091514;28;19927;-87
2023/10/29 09:53:20;;;;;;;7.22;1.73;;;;;;;11.26;100.00;99326.03;5094780;28;20419;-88
2023/10/29 09:55:47;;;;;;;8.45;1.80;;;;;;;11.29;100.00;99325.69;5095254;28;20457;-88
2023/10/29 09:58:13;;;;;;;13.95;2.25;;;;;;;11.37;100.00;99322.13;5094821;28;20086;-86
2023/10/29 10:00:39;;;;;;;10.07;1.60;;;;;;;11.42;100.00;99306.44;5096424;28;20028;-84
2023/10/29 10:03:04;;;;;;;12.90;1.80;;;;;;;11.44;100.00;99304.41;5096096;28;20039;-86
2023/10/29 10:05:29;;;;;;;10.25;2.67;;;;;;;11.48;100.00;99294.22;5097194;28;20032;-90
2023/10/29 10:07:56;;;;;;;10.40;1.95;;;;;;;11.60;100.00;99300.75;5096586;28;20310;-92
2023/10/29 10:10:21;;;;;;;11.80;1.38;;;;;;;11.96;100.00;99291.22;5094867;28;20036;-87
2023/10/29 10:12:51;;;;;;;10.77;2.60;;;;;;;12.34;100.00;99281.19;5095260;28;20042;-87
2023/10/29 10:15:19;;;;;;;13.27;2.13;;;;;;;12.65;100.00;99284.59;5096038;28;20058;-89
2023/10/29 10:17:56;;;;;;;17.00;4.22;;;;;;;12.82;100.00;99280.66;5094118;28;20036;-85
2023/10/29 10:20:22;;;;;;;17.52;3.85;;;;;;;12.75;100.00;99290.44;5095010;28;20028;-87
2023/10/29 10:23:01;;;;;;;7.80;2.15;;;;;;;12.69;100.00;99293.88;5094530;28;20041;-87
2023/10/29 10:25:29;;;;;;;14.95;1.98;;;;;;;12.62;100.00;99288.47;5094392;28;20024;-87
2023/10/29 10:27:57;;;;;;;8.88;1.90;;;;;;;12.60;100.00;99298.50;5093930;28;20055;-85
2023/10/29 10:30:27;;;;;;;8.60;2.00;;;;;;;12.57;100.00;99306.88;5094892;28;20481;-88
2023/10/29 10:32:54;;;;;;;10.27;1.95;;;;;;;12.55;100.00;99305.41;5095395;28;20115;-87
2023/10/29 10:35:20;;;;;;;21.40;3.00;;;;;;;12.58;100.00;99335.19;5095668;28;20032;-84
2023/10/29 10:37:55;;;;;;;13.52;2.20;;;;;;;12.69;100.00;99355.25;5093911;28;20035;-86
2023/10/29 10:40:26;;;;;;;9.63;1.75;;;;;;;12.79;100.00;99358.41;5093332;28;20039;-84
2023/10/29 10:42:58;;;;;;;11.75;2.10;;;;;;;12.69;100.00;99360.59;5094138;28;20081;-85
2023/10/29 10:45:26;;;;;;;15.10;2.60;;;;;;;12.57;100.00;99346.06;5093497;28;20347;-82
2023/10/29 10:47:56;;;;;;;11.30;1.98;;;;;;;12.64;100.00;99355.78;5093424;28;20035;-82
2023/10/29 10:50:22;;;;;;;12.85;2.10;;;;;;;12.61;100.00;99371.34;5094389;28;20070;-87
2023/10/29 10:52:50;;;;;;;13.68;1.98;;;;;;;12.68;100.00;99373.06;5095799;28;20362;-87
2023/10/29 10:55:16;;;;;;;13.02;2.28;;;;;;;12.65;100.00;99364.63;5091632;28;20122;-82
2023/10/29 10:57:44;;;;;;;14.88;2.22;;;;;;;12.48;100.00;99372.03;5091828;28;20063;-80
2023/10/29 11:00:12;;;;;;;15.85;1.90;;;;;;;12.30;100.00;99364.41;5093117;28;20028;-83
2023/10/29 11:02:40;;;;;;;10.95;2.25;;;;;;;12.13;100.00;99363.81;5093054;28;20088;-81
2023/10/29 11:05:10;;;;;;;15.50;2.38;;;;;;;12.06;100.00;99366.41;5093512;28;20028;-82
2023/10/29 11:07:41;;;;;;;13.88;2.35;;;;;;;12.03;100.00;99353.41;5093240;28;20150;-84
2023/10/29 11:10:11;;;;;;;15.13;2.45;;;;;;;12.05;100.00;99347.94;5092235;28;20107;-83
2023/10/29 11:12:38;;;;;;;17.63;2.00;;;;;;;12.04;100.00;99351.59;5093324;28;20111;-81
2023/10/29 11:15:17;;;;;;;12.60;2.25;;;;;;;12.03;100.00;99347.25;5092689;28;20047;-80
2023/10/29 11:18:00;;;;;;;12.90;2.05;;;;;;;12.05;100.00;99337.25;5091320;28;20408;-85
2023/10/29 11:20:38;;;;;;;13.73;2.38;;;;;;;12.06;100.00;99342.41;5092957;28;20028;-83
2023/10/29 11:23:12;;;;;;;10.73;1.92;;;;;;;12.02;100.00;99330.44;5092067;28;20106;-79